Axtel, Kentucky
Current Conditions -  °F | °C
As of 5:58 PM on Sunday 23 Nov 2014 (Local Time) from KFTK Reporting Station
Light Rain Light Rain  
Wind Chill: 55°   Ceiling: 900
Heat Index: 55°   Visibility: 8mi
Dew Point: 53°   Wind: 12mph
Humidity: 96%   Direction: 120°ESE
Pressure: 29.38"   Gusts: NA
Location:  37.7834°N, 86.4612°W
Report Text: KFTK 232358Z 12010KT 8SM -RA BKN009 OVC016 13/12 A2938 RMK AO2A CIG 006V009 SLP951 P0012 60056 T01250118 10131 20111 57044
Loading
Personal Weather Stations






























Interactive Weather Map New forecast layout! Learn more

10-Day Weather Forecast

Advertisements
Track Severe Weather on mobile